Time;durP1;ratioP1;P1;durP2;ratioP2;P2;SDS_P1;SDS_P2;PMS_P1;PMS_P2;Temp;Humidity;BMP_temperature;BMP_pressure;BME280_temperature;BME280_humidity;BME280_pressure;Samples;Min_cycle;Max_cycle;Signal;HPM_P1;HPM_P2
2023/01/13 00:00:18;;;;;;;12.03;3.27;;;;;;;;;;4953357;28;20217;-84
2023/01/13 00:02:44;;;;;;;12.93;3.53;;;;;;;;;;4966946;28;20179;-84
2023/01/13 00:05:10;;;;;;;13.83;3.53;;;;;;;;;;4954430;28;20182;-84
2023/01/13 00:07:38;;;;;;;12.40;3.13;;;;;;;;;;4953309;28;20187;-84
2023/01/13 00:10:05;;;;;;;14.23;3.57;;;;;;;;;;4968182;28;20277;-84
2023/01/13 00:12:31;;;;;;;14.47;4.07;;;;;;;;;;4965225;28;20194;-84
2023/01/13 00:14:57;;;;;;;19.23;5.13;;;;;;;;;;4959943;28;20191;-84
2023/01/13 00:17:23;;;;;;;16.53;4.50;;;;;;;;;;4956179;28;20253;-84
2023/01/13 00:19:49;;;;;;;19.97;4.63;;;;;;;;;;4969069;28;20245;-84
2023/01/13 00:22:15;;;;;;;18.23;4.57;;;;;;;;;;4955288;28;20195;-84
2023/01/13 00:24:41;;;;;;;20.93;5.20;;;;;;;;;;4970319;28;20289;-78
2023/01/13 00:27:08;;;;;;;19.30;4.67;;;;;;;;;;4954826;28;20289;-80
2023/01/13 00:29:33;;;;;;;22.50;4.77;;;;;;;;;;4955112;28;20278;-80
2023/01/13 00:32:00;;;;;;;20.10;4.70;;;;;;;;;;4968051;28;20267;-80
2023/01/13 00:34:25;;;;;;;20.67;4.70;;;;;;;;;;4955172;28;20202;-80
2023/01/13 00:36:51;;;;;;;21.33;4.17;;;;;;;;;;4959827;28;20222;-81
2023/01/13 00:39:17;;;;;;;19.17;4.37;;;;;;;;;;4953919;28;20238;-80
2023/01/13 00:44:28;;;;;;;24.90;4.97;;;;;;;;;;4970568;28;20285;-82
2023/01/13 00:46:54;;;;;;;24.20;4.20;;;;;;;;;;4953615;28;20179;-82
2023/01/13 00:49:20;;;;;;;29.07;4.73;;;;;;;;;;4954929;28;20273;-83
2023/01/13 00:51:46;;;;;;;20.67;4.47;;;;;;;;;;4968092;28;20210;-82
2023/01/13 00:54:12;;;;;;;21.97;4.40;;;;;;;;;;4973590;28;20221;-81
2023/01/13 00:56:38;;;;;;;21.83;4.60;;;;;;;;;;4978380;28;20181;-82
2023/01/13 00:59:04;;;;;;;19.73;4.40;;;;;;;;;;4958706;28;20225;-82
2023/01/13 01:01:30;;;;;;;23.50;4.73;;;;;;;;;;4960686;28;20311;-82
2023/01/13 01:03:57;;;;;;;25.80;4.87;;;;;;;;;;4977373;28;20260;-82
2023/01/13 01:06:24;;;;;;;23.20;4.90;;;;;;;;;;4961163;28;20182;-82
2023/01/13 01:08:51;;;;;;;24.43;5.10;;;;;;;;;;4972973;28;20177;-82
2023/01/13 01:11:19;;;;;;;26.47;4.90;;;;;;;;;;4942525;28;20194;-82
2023/01/13 01:13:45;;;;;;;30.20;5.40;;;;;;;;;;4958939;28;20228;-82
2023/01/13 01:16:13;;;;;;;25.37;5.00;;;;;;;;;;4983710;28;20193;-82
2023/01/13 01:18:40;;;;;;;29.60;5.30;;;;;;;;;;4966417;28;20189;-82
2023/01/13 01:21:06;;;;;;;25.23;5.27;;;;;;;;;;4966763;28;20264;-82
2023/01/13 01:23:33;;;;;;;23.60;4.77;;;;;;;;;;4966794;28;20178;-80
2023/01/13 01:26:00;;;;;;;24.03;4.63;;;;;;;;;;4967525;28;20182;-80
2023/01/13 01:28:26;;;;;;;23.47;5.30;;;;;;;;;;4966522;28;20197;-80
2023/01/13 01:30:54;;;;;;;30.00;5.30;;;;;;;;;;4954754;28;20189;-80
2023/01/13 01:33:20;;;;;;;29.13;5.33;;;;;;;;;;4952145;28;20214;-80
2023/01/13 01:35:46;;;;;;;27.43;5.80;;;;;;;;;;4982920;28;20301;-80
2023/01/13 01:38:12;;;;;;;31.00;5.47;;;;;;;;;;4959219;28;20182;-80
2023/01/13 01:40:38;;;;;;;25.73;4.87;;;;;;;;;;4966801;28;20214;-79
2023/01/13 01:45:57;;;;;;;25.73;6.00;;;;;;;;;;4983109;28;20206;-80
2023/01/13 01:48:23;;;;;;;28.67;6.00;;;;;;;;;;4965777;28;20258;-85
2023/01/13 01:50:49;;;;;;;30.97;5.87;;;;;;;;;;4953449;28;20237;-79
2023/01/13 01:53:17;;;;;;;29.40;6.30;;;;;;;;;;4949822;28;20198;-80
2023/01/13 01:55:43;;;;;;;32.23;5.63;;;;;;;;;;4966412;28;20241;-80
2023/01/13 01:58:14;;;;;;;25.83;5.83;;;;;;;;;;4953989;28;20189;-79
2023/01/13 02:00:40;;;;;;;33.47;6.80;;;;;;;;;;4966077;28;20216;-79
2023/01/13 02:03:07;;;;;;;18.93;5.20;;;;;;;;;;4963431;28;20190;-82
2023/01/13 02:05:33;;;;;;;27.03;6.17;;;;;;;;;;4961244;28;20190;-82
2023/01/13 02:08:00;;;;;;;31.10;5.97;;;;;;;;;;4951403;28;20288;-82
2023/01/13 02:10:27;;;;;;;29.17;5.77;;;;;;;;;;4965507;28;20198;-85
2023/01/13 02:12:55;;;;;;;27.27;5.80;;;;;;;;;;4968992;28;20240;-85
2023/01/13 02:15:22;;;;;;;28.03;5.87;;;;;;;;;;4982395;28;20194;-85
2023/01/13 02:17:48;;;;;;;29.47;6.00;;;;;;;;;;4967025;28;20182;-85
2023/01/13 02:20:33;;;;;;;29.17;6.30;;;;;;;;;;4988662;28;20214;-82
2023/01/13 02:26:05;;;;;;;34.27;6.20;;;;;;;;;;4987724;28;20176;-79
2023/01/13 02:31:41;;;;;;;27.70;5.60;;;;;;;;;;4988733;28;20193;-79
2023/01/13 02:34:10;;;;;;;26.80;6.03;;;;;;;;;;4971184;28;20194;-80
2023/01/13 02:36:49;;;;;;;27.40;5.23;;;;;;;;;;4969921;28;20239;-80
2023/01/13 02:39:15;;;;;;;32.13;6.20;;;;;;;;;;4966343;28;20222;-79
2023/01/13 02:44:51;;;;;;;28.97;6.10;;;;;;;;;;4988201;28;20205;-79
2023/01/13 02:47:21;;;;;;;27.00;5.73;;;;;;;;;;4969518;28;20213;-79
2023/01/13 02:50:10;;;;;;;24.43;5.23;;;;;;;;;;4970935;28;20224;-79
2023/01/13 02:52:43;;;;;;;28.17;5.13;;;;;;;;;;4965056;28;20190;-79
2023/01/13 02:55:12;;;;;;;26.60;5.50;;;;;;;;;;4978348;28;20178;-82
2023/01/13 02:57:39;;;;;;;29.87;5.67;;;;;;;;;;4961694;28;20297;-82
2023/01/13 03:00:10;;;;;;;26.93;5.40;;;;;;;;;;4961028;28;20242;-82
2023/01/13 03:02:37;;;;;;;27.03;5.50;;;;;;;;;;4961727;28;20195;-79
2023/01/13 03:05:04;;;;;;;29.60;5.80;;;;;;;;;;4961247;28;20174;-80
2023/01/13 03:07:42;;;;;;;27.90;5.60;;;;;;;;;;4961205;28;20183;-80
2023/01/13 03:10:11;;;;;;;28.83;5.77;;;;;;;;;;4960825;28;20270;-85
2023/01/13 03:12:49;;;;;;;23.00;5.33;;;;;;;;;;4975635;28;20182;-85
2023/01/13 03:15:24;;;;;;;27.67;5.67;;;;;;;;;;4961094;28;20281;-86
2023/01/13 03:17:50;;;;;;;30.37;5.80;;;;;;;;;;4961814;28;20265;-84
2023/01/13 03:20:25;;;;;;;26.23;6.10;;;;;;;;;;4960881;28;20301;-86
2023/01/13 03:23:05;;;;;;;28.20;5.93;;;;;;;;;;4961186;28;20178;-85
2023/01/13 03:25:34;;;;;;;27.87;5.93;;;;;;;;;;4962378;28;20298;-85
2023/01/13 03:28:06;;;;;;;30.33;5.83;;;;;;;;;;4979962;28;20265;-85
2023/01/13 03:30:49;;;;;;;27.13;5.80;;;;;;;;;;4979761;28;20337;-85
2023/01/13 03:33:17;;;;;;;27.53;4.97;;;;;;;;;;4976714;28;20193;-85
2023/01/13 03:35:45;;;;;;;28.23;5.20;;;;;;;;;;4960782;28;20242;-86
2023/01/13 03:38:21;;;;;;;31.97;6.13;;;;;;;;;;4964729;28;20196;-86
2023/01/13 03:40:49;;;;;;;25.77;4.83;;;;;;;;;;4996998;28;20213;-85
2023/01/13 03:46:08;;;;;;;27.97;5.80;;;;;;;;;;4997245;28;20189;-79
2023/01/13 03:48:35;;;;;;;32.70;5.60;;;;;;;;;;4979656;28;20184;-79
2023/01/13 03:51:12;;;;;;;26.73;5.57;;;;;;;;;;4993990;28;20265;-79
2023/01/13 03:53:40;;;;;;;33.03;6.40;;;;;;;;;;4973410;28;20199;-79
2023/01/13 03:56:11;;;;;;;31.23;5.40;;;;;;;;;;4996906;28;20182;-79
2023/01/13 03:58:40;;;;;;;26.50;5.97;;;;;;;;;;4970661;28;20285;-80
2023/01/13 04:01:13;;;;;;;34.37;6.10;;;;;;;;;;4979444;28;20237;-82
2023/01/13 04:03:54;;;;;;;33.03;5.57;;;;;;;;;;4978829;28;20186;-82
2023/01/13 04:06:30;;;;;;;31.00;5.83;;;;;;;;;;4979272;28;20177;-82
2023/01/13 04:08:59;;;;;;;21.57;5.10;;;;;;;;;;4979459;28;20240;-82
2023/01/13 04:11:29;;;;;;;25.93;5.47;;;;;;;;;;4996751;28;20174;-82
2023/01/13 04:13:55;;;;;;;22.13;4.60;;;;;;;;;;4979147;28;20204;-82
2023/01/13 04:16:21;;;;;;;32.63;5.23;;;;;;;;;;4996513;28;20209;-85
2023/01/13 04:18:49;;;;;;;25.03;5.50;;;;;;;;;;4963563;28;20220;-79
2023/01/13 04:21:15;;;;;;;27.87;5.30;;;;;;;;;;4978713;28;20205;-79
2023/01/13 04:23:41;;;;;;;27.63;5.70;;;;;;;;;;4979200;28;20209;-79
2023/01/13 04:26:07;;;;;;;30.20;5.63;;;;;;;;;;4979109;28;20189;-79
2023/01/13 04:28:33;;;;;;;19.50;5.00;;;;;;;;;;4963354;28;20182;-80
2023/01/13 04:31:00;;;;;;;22.37;4.73;;;;;;;;;;4978371;28;20289;-79
2023/01/13 04:33:26;;;;;;;23.00;4.97;;;;;;;;;;4963225;28;20189;-79
2023/01/13 04:35:52;;;;;;;27.23;4.93;;;;;;;;;;4962873;28;20328;-80
2023/01/13 04:38:20;;;;;;;20.60;4.43;;;;;;;;;;4978755;28;20193;-79
2023/01/13 04:40:46;;;;;;;24.10;4.93;;;;;;;;;;4978113;28;20210;-79
2023/01/13 04:43:12;;;;;;;19.07;4.13;;;;;;;;;;4962620;28;20184;-80
2023/01/13 04:45:38;;;;;;;17.80;4.07;;;;;;;;;;4963297;28;20240;-79
2023/01/13 04:48:04;;;;;;;13.03;3.20;;;;;;;;;;4995922;28;20178;-79
2023/01/13 04:50:30;;;;;;;14.13;3.23;;;;;;;;;;4978928;28;20189;-79
2023/01/13 04:52:56;;;;;;;11.70;3.00;;;;;;;;;;4958862;28;20194;-79
2023/01/13 04:55:23;;;;;;;12.20;2.70;;;;;;;;;;4943300;28;20212;-79
2023/01/13 04:57:49;;;;;;;12.63;2.90;;;;;;;;;;4985394;28;20197;-79
2023/01/13 05:00:16;;;;;;;13.43;2.70;;;;;;;;;;4962163;28;20210;-79
2023/01/13 05:02:42;;;;;;;14.47;2.73;;;;;;;;;;4973973;28;20186;-79
2023/01/13 05:05:08;;;;;;;9.43;2.40;;;;;;;;;;4962363;28;20201;-79
2023/01/13 05:07:34;;;;;;;9.73;2.90;;;;;;;;;;4959124;28;20219;-79
2023/01/13 05:10:00;;;;;;;12.63;2.50;;;;;;;;;;4943025;28;20182;-80
2023/01/13 05:17:56;;;;;;;11.03;2.30;;;;;;;;;;4975747;28;20214;-79
2023/01/13 05:20:23;;;;;;;8.80;2.30;;;;;;;;;;4942850;28;20218;-79
2023/01/13 05:25:34;;;;;;;8.93;2.43;;;;;;;;;;4961612;28;20193;-79
2023/01/13 05:28:00;;;;;;;11.43;2.77;;;;;;;;;;4958558;28;20183;-79
2023/01/13 05:30:30;;;;;;;9.30;2.33;;;;;;;;;;4975367;28;20214;-79
2023/01/13 05:32:56;;;;;;;14.33;3.30;;;;;;;;;;4958336;28;20193;-79
2023/01/13 05:35:22;;;;;;;11.73;2.17;;;;;;;;;;4959379;28;20182;-79
2023/01/13 05:37:49;;;;;;;11.77;2.87;;;;;;;;;;4962130;28;20189;-79
2023/01/13 05:43:19;;;;;;;11.57;2.70;;;;;;;;;;4995053;28;20424;-86
2023/01/13 05:45:49;;;;;;;11.67;2.73;;;;;;;;;;4977652;28;20242;-85
2023/01/13 05:48:16;;;;;;;11.70;2.37;;;;;;;;;;4977468;28;20177;-85
2023/01/13 05:50:43;;;;;;;11.57;2.60;;;;;;;;;;4970471;28;20186;-85
2023/01/13 05:53:09;;;;;;;11.87;3.30;;;;;;;;;;4956800;28;20206;-85
2023/01/13 05:55:37;;;;;;;8.30;2.47;;;;;;;;;;4962038;28;20280;-85
2023/01/13 05:58:03;;;;;;;9.03;2.57;;;;;;;;;;4958261;28;20193;-79
2023/01/13 06:00:29;;;;;;;8.67;2.80;;;;;;;;;;4942219;28;20215;-80
2023/01/13 06:02:55;;;;;;;11.33;2.97;;;;;;;;;;4942029;28;20178;-80
2023/01/13 06:05:21;;;;;;;16.27;3.33;;;;;;;;;;4958337;28;20178;-80
2023/01/13 06:07:47;;;;;;;14.00;3.10;;;;;;;;;;4953832;28;20221;-79
2023/01/13 06:10:13;;;;;;;13.03;3.17;;;;;;;;;;4957627;28;20217;-85
2023/01/13 06:12:39;;;;;;;12.53;2.93;;;;;;;;;;4956347;28;20191;-86
2023/01/13 06:15:06;;;;;;;18.27;3.37;;;;;;;;;;4960544;28;20185;-79
2023/01/13 06:17:32;;;;;;;9.83;3.03;;;;;;;;;;4961416;28;20244;-79
2023/01/13 06:19:58;;;;;;;16.20;4.10;;;;;;;;;;4958233;28;20190;-79
2023/01/13 06:22:26;;;;;;;14.37;2.80;;;;;;;;;;4957823;28;20195;-79
2023/01/13 06:24:53;;;;;;;15.23;3.37;;;;;;;;;;4970695;28;20181;-79
2023/01/13 06:27:20;;;;;;;14.47;2.93;;;;;;;;;;4977543;28;20182;-79
2023/01/13 06:29:46;;;;;;;15.17;3.27;;;;;;;;;;4962529;28;20275;-82
2023/01/13 06:32:18;;;;;;;15.40;3.60;;;;;;;;;;4975010;28;20186;-82
2023/01/13 06:34:47;;;;;;;18.93;3.60;;;;;;;;;;4972391;28;20239;-82
2023/01/13 06:37:14;;;;;;;18.73;4.10;;;;;;;;;;4974084;28;20502;-82
2023/01/13 06:39:40;;;;;;;17.30;4.20;;;;;;;;;;4957805;28;20187;-82
2023/01/13 06:44:51;;;;;;;22.83;3.63;;;;;;;;;;4975316;28;20180;-79
2023/01/13 06:47:17;;;;;;;18.50;3.93;;;;;;;;;;4975129;28;20253;-79
2023/01/13 06:49:43;;;;;;;18.20;4.27;;;;;;;;;;4974841;28;20186;-79
2023/01/13 06:52:09;;;;;;;14.63;3.77;;;;;;;;;;4944680;28;20205;-79
2023/01/13 06:54:35;;;;;;;18.07;4.03;;;;;;;;;;4958800;28;20186;-79
2023/01/13 06:57:02;;;;;;;19.17;4.10;;;;;;;;;;4941740;28;20281;-79
2023/01/13 06:59:28;;;;;;;15.03;4.10;;;;;;;;;;4941901;28;20214;-79
2023/01/13 07:01:54;;;;;;;19.80;4.30;;;;;;;;;;4971855;28;20253;-79
2023/01/13 07:04:20;;;;;;;17.60;3.70;;;;;;;;;;4962316;28;20206;-79
2023/01/13 07:06:46;;;;;;;17.90;3.80;;;;;;;;;;4980126;28;20193;-79
2023/01/13 07:09:12;;;;;;;15.07;3.63;;;;;;;;;;4964041;28;20186;-79
2023/01/13 07:11:38;;;;;;;20.57;4.47;;;;;;;;;;4964120;28;20201;-79
2023/01/13 07:16:48;;;;;;;18.13;4.33;;;;;;;;;;4983340;28;20189;-79
2023/01/13 07:19:21;;;;;;;19.27;3.87;;;;;;;;;;4964171;28;20190;-79
2023/01/13 07:21:47;;;;;;;20.43;4.30;;;;;;;;;;4981858;28;20239;-79
2023/01/13 07:24:13;;;;;;;28.87;4.63;;;;;;;;;;4980468;28;20178;-79
2023/01/13 07:26:39;;;;;;;20.67;4.07;;;;;;;;;;4964226;28;20178;-79
2023/01/13 07:29:05;;;;;;;22.83;4.17;;;;;;;;;;4980412;28;20182;-79
2023/01/13 07:31:31;;;;;;;20.40;4.47;;;;;;;;;;4964020;28;20236;-79
2023/01/13 07:33:58;;;;;;;21.05;4.25;;;;;;;;;;4979771;28;20567;-78
2023/01/13 07:36:24;;;;;;;18.80;4.47;;;;;;;;;;4962958;28;20440;-85
2023/01/13 07:38:51;;;;;;;21.47;4.80;;;;;;;;;;4980304;28;20325;-85
2023/01/13 07:44:04;;;;;;;20.83;4.13;;;;;;;;;;4982908;28;20212;-85
2023/01/13 07:46:31;;;;;;;23.23;4.20;;;;;;;;;;4979639;28;20171;-85
2023/01/13 07:48:57;;;;;;;21.57;4.47;;;;;;;;;;4979749;28;20174;-86
2023/01/13 07:51:23;;;;;;;16.43;4.23;;;;;;;;;;4964304;28;20201;-85
2023/01/13 07:53:49;;;;;;;22.50;4.27;;;;;;;;;;4963655;28;20182;-79
2023/01/13 07:56:15;;;;;;;18.27;4.47;;;;;;;;;;4975989;28;20193;-79
2023/01/13 07:58:41;;;;;;;20.00;4.10;;;;;;;;;;4999350;28;20177;-79
2023/01/13 08:01:11;;;;;;;18.20;4.20;;;;;;;;;;4998921;28;20213;-79
2023/01/13 08:03:38;;;;;;;18.73;4.77;;;;;;;;;;5016372;28;20165;-80
2023/01/13 08:06:05;;;;;;;22.47;4.57;;;;;;;;;;4982820;28;20182;-79
2023/01/13 08:08:31;;;;;;;19.20;4.33;;;;;;;;;;4998774;28;20173;-79
2023/01/13 08:11:01;;;;;;;19.17;4.40;;;;;;;;;;4982838;28;20296;-79
2023/01/13 08:13:27;;;;;;;21.60;4.77;;;;;;;;;;4982909;28;20284;-80
2023/01/13 08:15:58;;;;;;;19.20;4.20;;;;;;;;;;4981579;28;20190;-79
2023/01/13 08:18:24;;;;;;;15.00;4.00;;;;;;;;;;5016089;28;20173;-79
2023/01/13 08:20:53;;;;;;;20.10;4.70;;;;;;;;;;4982099;28;20217;-79
2023/01/13 08:23:20;;;;;;;22.43;4.77;;;;;;;;;;4998216;28;20193;-79
2023/01/13 08:25:46;;;;;;;21.80;5.07;;;;;;;;;;4998343;28;20197;-79
2023/01/13 08:28:13;;;;;;;20.50;4.67;;;;;;;;;;4981704;28;20190;-79
2023/01/13 08:30:39;;;;;;;23.63;4.87;;;;;;;;;;4974769;28;20187;-79
2023/01/13 08:33:09;;;;;;;24.20;5.50;;;;;;;;;;4957419;28;20425;-79
2023/01/13 08:35:36;;;;;;;18.00;4.40;;;;;;;;;;4958872;28;20234;-79
2023/01/13 08:38:02;;;;;;;25.80;5.10;;;;;;;;;;4971687;28;20240;-79
2023/01/13 08:40:28;;;;;;;26.30;4.87;;;;;;;;;;4969702;28;20220;-79
2023/01/13 08:42:55;;;;;;;19.50;4.70;;;;;;;;;;4960650;28;20170;-79
2023/01/13 08:45:21;;;;;;;23.03;4.83;;;;;;;;;;4996207;28;20177;-85
2023/01/13 08:47:47;;;;;;;22.97;4.63;;;;;;;;;;4977151;28;20192;-85
2023/01/13 08:50:13;;;;;;;21.93;4.97;;;;;;;;;;4982008;28;20276;-85
2023/01/13 08:52:40;;;;;;;17.50;4.60;;;;;;;;;;4992635;28;20185;-85
2023/01/13 08:55:06;;;;;;;23.93;4.60;;;;;;;;;;4978857;28;20186;-85
2023/01/13 08:57:32;;;;;;;24.93;4.90;;;;;;;;;;4978224;28;20276;-85
2023/01/13 08:59:58;;;;;;;25.37;5.33;;;;;;;;;;4968560;28;20174;-79
2023/01/13 09:02:25;;;;;;;24.20;4.97;;;;;;;;;;4973015;28;20174;-79
2023/01/13 09:04:51;;;;;;;21.73;4.37;;;;;;;;;;4986240;28;20170;-79
2023/01/13 09:07:17;;;;;;;25.93;5.17;;;;;;;;;;4958851;28;20179;-79
2023/01/13 09:09:43;;;;;;;21.20;5.33;;;;;;;;;;4971484;28;20198;-79
2023/01/13 09:14:59;;;;;;;18.07;5.00;;;;;;;;;;5015373;28;20242;-79
2023/01/13 09:17:26;;;;;;;24.27;4.90;;;;;;;;;;4997578;28;20188;-79
2023/01/13 09:19:52;;;;;;;21.60;5.17;;;;;;;;;;4978627;28;20185;-79
2023/01/13 09:22:18;;;;;;;23.83;4.97;;;;;;;;;;4942663;28;20191;-79
2023/01/13 09:24:45;;;;;;;24.97;4.57;;;;;;;;;;4958765;28;20182;-79
2023/01/13 09:27:12;;;;;;;24.33;4.87;;;;;;;;;;4978239;28;20249;-79
2023/01/13 09:29:38;;;;;;;21.60;5.03;;;;;;;;;;4966868;28;20182;-79
2023/01/13 09:32:05;;;;;;;23.70;5.00;;;;;;;;;;4965167;28;20182;-79
2023/01/13 09:37:15;;;;;;;23.90;5.07;;;;;;;;;;4980541;28;20236;-79
2023/01/13 09:39:41;;;;;;;20.33;4.40;;;;;;;;;;4959136;28;20190;-79
2023/01/13 09:45:31;;;;;;;24.73;5.13;;;;;;;;;;4972738;28;20244;-80
2023/01/13 09:47:57;;;;;;;20.60;4.23;;;;;;;;;;4975533;28;20171;-79
2023/01/13 09:50:37;;;;;;;23.17;4.87;;;;;;;;;;4997422;23;20384;-88
2023/01/13 09:53:06;;;;;;;23.60;5.17;;;;;;;;;;4958830;28;20186;-88
2023/01/13 09:55:35;;;;;;;23.17;5.30;;;;;;;;;;4941846;29;20203;-86
2023/01/13 09:58:02;;;;;;;19.77;5.23;;;;;;;;;;4956668;28;20238;-90
2023/01/13 10:00:35;;;;;;;22.57;4.50;;;;;;;;;;4944724;28;20207;-89
2023/01/13 10:03:01;;;;;;;26.07;5.23;;;;;;;;;;4939404;29;20182;-88
2023/01/13 10:05:34;;;;;;;26.57;5.17;;;;;;;;;;4939669;29;20222;-89
2023/01/13 10:08:22;;;;;;;24.53;5.33;;;;;;;;;;4952432;28;20191;-80
2023/01/13 10:10:49;;;;;;;19.43;4.17;;;;;;;;;;4954902;29;20179;-80
2023/01/13 10:13:15;;;;;;;20.57;4.50;;;;;;;;;;4956992;28;20193;-80
2023/01/13 10:16:01;;;;;;;24.37;5.00;;;;;;;;;;4958133;28;20192;-80
2023/01/13 10:18:33;;;;;;;22.13;4.80;;;;;;;;;;4954768;28;20246;-80
2023/01/13 10:21:18;;;;;;;26.90;4.80;;;;;;;;;;4938968;29;20238;-80
2023/01/13 10:23:50;;;;;;;20.50;4.40;;;;;;;;;;4954428;28;20229;-88
2023/01/13 10:26:23;;;;;;;21.27;4.60;;;;;;;;;;4958318;28;20185;-89
2023/01/13 10:28:56;;;;;;;19.40;4.17;;;;;;;;;;4939539;29;20236;-90
2023/01/13 10:31:23;;;;;;;20.67;5.03;;;;;;;;;;4940701;28;20186;-89
2023/01/13 10:33:57;;;;;;;19.33;4.23;;;;;;;;;;4958061;28;20210;-89
2023/01/13 10:36:23;;;;;;;18.53;5.00;;;;;;;;;;4958122;28;20193;-88
2023/01/13 10:38:50;;;;;;;23.40;4.90;;;;;;;;;;4975451;28;20266;-89
2023/01/13 10:41:16;;;;;;;19.97;4.20;;;;;;;;;;4946128;28;20241;-85
2023/01/13 10:44:03;;;;;;;26.90;4.63;;;;;;;;;;4961478;28;20178;-86
2023/01/13 10:46:30;;;;;;;18.60;4.50;;;;;;;;;;4961589;28;20183;-86
2023/01/13 10:48:58;;;;;;;22.00;4.77;;;;;;;;;;4961634;28;20202;-86
2023/01/13 10:51:30;;;;;;;22.03;4.70;;;;;;;;;;4961225;28;20242;-85
2023/01/13 10:54:13;;;;;;;22.20;5.03;;;;;;;;;;4955959;28;20264;-86
2023/01/13 10:56:40;;;;;;;19.20;4.40;;;;;;;;;;4961385;28;20273;-81
2023/01/13 10:59:09;;;;;;;20.63;4.70;;;;;;;;;;4961325;28;20186;-80
2023/01/13 11:01:36;;;;;;;21.70;4.90;;;;;;;;;;4961813;28;20369;-81
2023/01/13 11:04:21;;;;;;;19.13;4.93;;;;;;;;;;4933753;28;20274;-81
2023/01/13 11:06:47;;;;;;;22.10;4.73;;;;;;;;;;4942016;29;20175;-81
2023/01/13 11:09:19;;;;;;;17.50;4.43;;;;;;;;;;4949540;28;20288;-80
2023/01/13 11:11:54;;;;;;;21.43;4.63;;;;;;;;;;4958363;28;20309;-80
2023/01/13 11:14:44;;;;;;;17.57;4.43;;;;;;;;;;4961191;28;20182;-80
2023/01/13 11:17:13;;;;;;;18.00;4.40;;;;;;;;;;4955181;28;20194;-79
2023/01/13 11:19:47;;;;;;;20.93;4.57;;;;;;;;;;4952565;28;20186;-79
2023/01/13 11:22:19;;;;;;;22.20;4.90;;;;;;;;;;4947085;28;20202;-79
2023/01/13 11:24:49;;;;;;;20.33;4.57;;;;;;;;;;4959148;28;20280;-79
2023/01/13 11:27:34;;;;;;;28.07;5.07;;;;;;;;;;4960842;28;20186;-79
2023/01/13 11:30:18;;;;;;;24.87;5.03;;;;;;;;;;4978307;28;20179;-88
2023/01/13 11:32:56;;;;;;;23.10;4.77;;;;;;;;;;4960814;28;20182;-88
2023/01/13 11:35:23;;;;;;;27.83;5.10;;;;;;;;;;4960768;28;20224;-87
2023/01/13 11:37:53;;;;;;;28.77;5.73;;;;;;;;;;4945160;28;20190;-87
2023/01/13 11:40:30;;;;;;;27.63;5.27;;;;;;;;;;4960329;28;20214;-88
2023/01/13 11:43:15;;;;;;;25.67;4.90;;;;;;;;;;4959152;28;20183;-87
2023/01/13 11:45:46;;;;;;;24.27;4.67;;;;;;;;;;4958131;29;20175;-86
2023/01/13 11:48:13;;;;;;;25.17;5.13;;;;;;;;;;4957195;29;20187;-84
2023/01/13 11:51:00;;;;;;;21.87;5.20;;;;;;;;;;4956918;28;20234;-85
2023/01/13 11:53:32;;;;;;;23.90;5.60;;;;;;;;;;4957964;29;20187;-85
2023/01/13 11:56:05;;;;;;;24.13;4.73;;;;;;;;;;4957132;29;20195;-87
2023/01/13 11:58:40;;;;;;;21.87;4.80;;;;;;;;;;4957218;29;20237;-88
2023/01/13 12:01:30;;;;;;;22.37;4.50;;;;;;;;;;4956638;29;20221;-87
2023/01/13 12:04:03;;;;;;;20.13;4.30;;;;;;;;;;4957492;28;20183;-81
2023/01/13 12:06:29;;;;;;;23.47;4.33;;;;;;;;;;4970422;28;20183;-81
2023/01/13 12:09:10;;;;;;;17.43;4.00;;;;;;;;;;4976154;28;20179;-87
2023/01/13 12:12:18;;;;;;;18.20;4.33;;;;;;;;;;4955844;29;20187;-88
2023/01/13 12:14:40;;;;;;;22.73;5.13;;;;;;;;;;4965810;28;20183;-87
2023/01/13 12:17:15;;;;;;;23.30;5.20;;;;;;;;;;4957757;28;20277;-88
2023/01/13 12:19:45;;;;;;;23.63;4.50;;;;;;;;;;4959846;28;20182;-80
2023/01/13 12:22:23;;;;;;;23.57;5.40;;;;;;;;;;4958345;28;20210;-79
2023/01/13 12:24:52;;;;;;;22.97;4.60;;;;;;;;;;4975461;28;20214;-79
2023/01/13 12:27:21;;;;;;;19.07;4.83;;;;;;;;;;4959121;28;20182;-80
2023/01/13 12:29:48;;;;;;;24.67;5.10;;;;;;;;;;4956280;28;20186;-80
2023/01/13 12:32:16;;;;;;;22.10;4.13;;;;;;;;;;4976491;28;20182;-79
2023/01/13 12:34:51;;;;;;;24.13;4.87;;;;;;;;;;4959056;28;20185;-79
2023/01/13 12:37:26;;;;;;;26.03;4.57;;;;;;;;;;4959564;28;20175;-80
2023/01/13 12:40:22;;;;;;;23.83;4.83;;;;;;;;;;4959781;28;20179;-80
2023/01/13 12:45:38;;;;;;;26.57;4.93;;;;;;;;;;4957606;29;20239;-81
2023/01/13 12:48:04;;;;;;;26.10;4.83;;;;;;;;;;4941095;28;20207;-80
2023/01/13 12:50:30;;;;;;;20.13;4.47;;;;;;;;;;4976535;28;20222;-81
2023/01/13 12:52:57;;;;;;;25.63;4.53;;;;;;;;;;4959267;28;20182;-81
2023/01/13 12:55:24;;;;;;;20.27;4.50;;;;;;;;;;4943335;28;20233;-79
2023/01/13 12:58:06;;;;;;;22.33;4.10;;;;;;;;;;4959541;28;20182;-80
2023/01/13 13:00:32;;;;;;;21.83;5.00;;;;;;;;;;4959107;28;20207;-79
2023/01/13 13:03:10;;;;;;;19.23;4.67;;;;;;;;;;4958723;28;20181;-79
2023/01/13 13:05:49;;;;;;;19.63;4.67;;;;;;;;;;4976099;28;20170;-81
2023/01/13 13:08:31;;;;;;;20.83;5.47;;;;;;;;;;4976272;28;20183;-79
2023/01/13 13:11:06;;;;;;;19.07;4.97;;;;;;;;;;4958825;28;20276;-80
2023/01/13 13:13:41;;;;;;;22.17;4.67;;;;;;;;;;4958459;28;20240;-80
2023/01/13 13:16:25;;;;;;;21.13;4.63;;;;;;;;;;4955421;28;20191;-81
2023/01/13 13:19:14;;;;;;;17.70;4.30;;;;;;;;;;4958266;28;20178;-80
2023/01/13 13:21:59;;;;;;;19.30;4.60;;;;;;;;;;4958383;28;20297;-80
2023/01/13 13:24:25;;;;;;;20.33;4.23;;;;;;;;;;4975583;28;20316;-80
2023/01/13 13:26:51;;;;;;;18.63;4.03;;;;;;;;;;4976567;28;20269;-85
2023/01/13 13:29:20;;;;;;;22.40;4.47;;;;;;;;;;4987313;28;20210;-85
2023/01/13 13:32:09;;;;;;;19.43;4.53;;;;;;;;;;4955210;29;20187;-86
2023/01/13 13:34:53;;;;;;;16.80;4.17;;;;;;;;;;4960634;28;20262;-86
2023/01/13 13:49:08;;;;;;;16.43;4.13;;;;;;;;;;4975769;28;20189;-81
2023/01/13 13:51:39;;;;;;;14.90;4.37;;;;;;;;;;4958341;28;20312;-81
2023/01/13 13:54:05;;;;;;;18.20;3.70;;;;;;;;;;4957989;28;20191;-81
2023/01/13 13:56:34;;;;;;;17.30;3.90;;;;;;;;;;4976010;28;20242;-80
2023/01/13 13:59:00;;;;;;;21.63;4.20;;;;;;;;;;4954085;28;20186;-81
2023/01/13 14:01:32;;;;;;;22.20;4.13;;;;;;;;;;4939325;28;20210;-82
2023/01/13 14:04:06;;;;;;;18.83;4.17;;;;;;;;;;4943401;29;20191;-81
2023/01/13 14:06:32;;;;;;;15.37;3.83;;;;;;;;;;4954870;29;20182;-82
2023/01/13 14:08:58;;;;;;;15.57;3.83;;;;;;;;;;4954855;29;20179;-81
2023/01/13 14:11:26;;;;;;;20.43;3.60;;;;;;;;;;4971449;28;20270;-81
2023/01/13 14:14:12;;;;;;;20.23;3.90;;;;;;;;;;4958350;28;20186;-81
2023/01/13 14:16:39;;;;;;;20.13;3.90;;;;;;;;;;4962344;28;20186;-88
2023/01/13 14:19:05;;;;;;;17.20;3.70;;;;;;;;;;4929328;29;20195;-88
2023/01/13 14:21:31;;;;;;;15.03;3.87;;;;;;;;;;4943655;29;20278;-88
2023/01/13 14:23:59;;;;;;;16.57;3.80;;;;;;;;;;4937390;28;20187;-88
2023/01/13 14:26:27;;;;;;;19.87;4.60;;;;;;;;;;4962093;28;20226;-87
2023/01/13 14:28:53;;;;;;;18.37;3.90;;;;;;;;;;4962326;28;20187;-87
2023/01/13 14:31:19;;;;;;;17.93;4.00;;;;;;;;;;4962022;28;20182;-88
2023/01/13 14:33:47;;;;;;;18.97;3.90;;;;;;;;;;4946062;28;20193;-81
2023/01/13 14:36:32;;;;;;;15.90;3.37;;;;;;;;;;4961832;28;20186;-81
2023/01/13 14:39:04;;;;;;;20.03;3.87;;;;;;;;;;4961551;28;20182;-81
2023/01/13 14:41:33;;;;;;;14.40;4.13;;;;;;;;;;4961040;28;20349;-83
2023/01/13 14:44:01;;;;;;;13.87;3.80;;;;;;;;;;4961401;28;20217;-81
2023/01/13 14:46:37;;;;;;;21.37;4.40;;;;;;;;;;4961685;28;20183;-81
2023/01/13 14:49:03;;;;;;;21.57;4.00;;;;;;;;;;4954524;28;20272;-81
2023/01/13 14:51:30;;;;;;;15.40;3.97;;;;;;;;;;4961519;28;20234;-81
2023/01/13 14:53:56;;;;;;;21.03;3.83;;;;;;;;;;4961736;28;20226;-81
2023/01/13 14:56:34;;;;;;;15.50;3.77;;;;;;;;;;4945766;28;20278;-81
2023/01/13 14:59:19;;;;;;;16.70;3.83;;;;;;;;;;4961373;28;20187;-80
2023/01/13 15:01:45;;;;;;;20.23;5.17;;;;;;;;;;4978228;28;20284;-81
2023/01/13 15:04:15;;;;;;;20.13;6.17;;;;;;;;;;4961837;28;20214;-81
2023/01/13 15:06:45;;;;;;;21.37;4.70;;;;;;;;;;4945490;28;20182;-85
2023/01/13 15:09:18;;;;;;;13.17;3.43;;;;;;;;;;4978649;28;20256;-85
2023/01/13 15:11:46;;;;;;;19.90;4.53;;;;;;;;;;4978683;28;20186;-86
2023/01/13 15:14:12;;;;;;;19.27;4.77;;;;;;;;;;4944687;28;20194;-87
2023/01/13 15:16:38;;;;;;;20.63;4.87;;;;;;;;;;4945419;28;20195;-86
2023/01/13 15:19:04;;;;;;;15.67;3.83;;;;;;;;;;4961243;28;20211;-87
2023/01/13 15:21:30;;;;;;;23.40;4.13;;;;;;;;;;4945228;28;20210;-87
2023/01/13 15:23:56;;;;;;;20.63;4.03;;;;;;;;;;4961078;28;20181;-81
2023/01/13 15:26:26;;;;;;;17.87;4.63;;;;;;;;;;4944731;28;20182;-81
2023/01/13 15:28:54;;;;;;;18.60;4.20;;;;;;;;;;4960726;28;20261;-87
2023/01/13 15:31:20;;;;;;;15.10;3.70;;;;;;;;;;4960981;28;20254;-88
2023/01/13 15:33:46;;;;;;;18.03;4.23;;;;;;;;;;4960672;28;20187;-89
2023/01/13 15:36:18;;;;;;;21.30;4.33;;;;;;;;;;4944991;28;20191;-88
2023/01/13 15:38:44;;;;;;;14.83;3.10;;;;;;;;;;4960757;28;20183;-88
2023/01/13 15:41:10;;;;;;;13.93;3.53;;;;;;;;;;4944796;28;20221;-88
2023/01/13 15:46:36;;;;;;;18.97;4.83;;;;;;;;;;4978246;28;20234;-88